Time;durP1;ratioP1;P1;durP2;ratioP2;P2;SDS_P1;SDS_P2;PMS_P1;PMS_P2;Temp;Humidity;BMP_temperature;BMP_pressure;BME280_temperature;BME280_humidity;BME280_pressure;Samples;Min_cycle;Max_cycle;Signal;HPM_P1;HPM_P2
2022/04/04 00:00:20;;;;;;;;;;;1.70;99.90;;;;;;2603079;54;20809;31
2022/04/04 00:02:54;;;;;;;;;;;1.70;99.90;;;;;;2603209;54;20778;31
2022/04/04 00:05:30;;;;;;;;;;;1.70;99.90;;;;;;2602067;54;20014;31
2022/04/04 00:08:10;;;;;;;;;;;1.70;99.90;;;;;;2602778;54;20782;31
2022/04/04 00:10:45;;;;;;;;;;;1.70;99.90;;;;;;2602345;54;19947;31
2022/04/04 00:13:23;;;;;;;;;;;1.70;99.90;;;;;;2602687;54;19941;31
2022/04/04 00:16:00;;;;;;;;;;;1.70;99.90;;;;;;2621333;47;20833;31
2022/04/04 00:18:37;;;;;;;;;;;1.70;99.90;;;;;;2602184;54;19981;31
2022/04/04 00:21:11;;;;;;;;;;;1.70;99.90;;;;;;2602209;54;19935;31
2022/04/04 00:23:46;;;;;;;;;;;1.60;99.90;;;;;;2621228;47;19942;31
2022/04/04 00:26:36;;;;;;;;;;;1.60;99.90;;;;;;2602797;54;21169;31
2022/04/04 00:29:14;;;;;;;;;;;1.60;99.90;;;;;;2602835;54;19965;31
2022/04/04 00:31:52;;;;;;;;;;;1.60;99.90;;;;;;2602029;54;19953;31
2022/04/04 00:34:27;;;;;;;;;;;1.50;99.90;;;;;;2602081;54;20004;31
2022/04/04 00:37:02;;;;;;;;;;;1.50;99.90;;;;;;2602923;54;20732;31
2022/04/04 00:39:37;;;;;;;;;;;1.50;99.90;;;;;;2621288;47;19935;31
2022/04/04 00:42:12;;;;;;;;;;;1.50;99.90;;;;;;2602891;54;19934;31
2022/04/04 00:44:51;;;;;;;;;;;1.40;99.90;;;;;;2602700;54;19942;31
2022/04/04 00:47:30;;;;;;;;;;;1.40;99.90;;;;;;2602719;54;20740;31
2022/04/04 00:50:04;;;;;;;;;;;1.40;99.90;;;;;;2602067;54;19938;31
2022/04/04 00:52:41;;;;;;;;;;;1.30;99.90;;;;;;2601971;54;20752;31
2022/04/04 00:55:16;;;;;;;;;;;1.30;99.90;;;;;;2603642;54;20729;31
2022/04/04 00:57:51;;;;;;;;;;;1.30;99.90;;;;;;2603273;54;19935;31
2022/04/04 01:00:31;;;;;;;;;;;1.30;99.90;;;;;;2603503;54;19938;31
2022/04/04 01:03:06;;;;;;;;;;;1.30;99.90;;;;;;2603390;54;20114;31
2022/04/04 01:05:44;;;;;;;;;;;1.20;99.90;;;;;;2603255;54;20015;31
2022/04/04 01:08:18;;;;;;;;;;;1.20;99.90;;;;;;2602912;54;19949;31
2022/04/04 01:10:54;;;;;;;;;;;1.30;99.90;;;;;;2622335;46;20667;31
2022/04/04 01:13:29;;;;;;;;;;;1.30;99.90;;;;;;2603451;54;20659;31
2022/04/04 01:16:07;;;;;;;;;;;1.30;99.90;;;;;;2603550;54;20728;31
2022/04/04 01:18:42;;;;;;;;;;;1.30;99.90;;;;;;2622069;46;19957;31
2022/04/04 01:21:20;;;;;;;;;;;1.40;99.90;;;;;;2603445;54;19934;31
2022/04/04 01:23:55;;;;;;;;;;;1.40;99.90;;;;;;2603646;54;20760;31
2022/04/04 01:26:34;;;;;;;;;;;1.40;99.90;;;;;;2603541;54;19935;31
2022/04/04 01:29:09;;;;;;;;;;;1.40;99.90;;;;;;2621898;46;19934;31
2022/04/04 01:31:43;;;;;;;;;;;1.40;99.90;;;;;;2603293;54;19938;31
2022/04/04 01:34:21;;;;;;;;;;;1.40;99.90;;;;;;2603680;54;20796;31
2022/04/04 01:36:57;;;;;;;;;;;1.40;99.90;;;;;;2621769;46;19938;31
2022/04/04 01:39:33;;;;;;;;;;;1.40;99.90;;;;;;2603466;54;20044;31
2022/04/04 01:42:11;;;;;;;;;;;1.40;99.90;;;;;;2621728;46;19946;31
2022/04/04 01:44:47;;;;;;;;;;;1.50;99.90;;;;;;2621799;46;20046;31
2022/04/04 01:47:22;;;;;;;;;;;1.50;99.90;;;;;;2702279;39;22194;31
2022/04/04 01:49:56;;;;;;;;;;;1.50;99.90;;;;;;2621823;46;19950;31
2022/04/04 01:52:32;;;;;;;;;;;1.50;99.90;;;;;;2621776;46;20030;31
2022/04/04 01:55:06;;;;;;;;;;;1.50;99.90;;;;;;2603237;54;19942;31
2022/04/04 01:57:43;;;;;;;;;;;1.60;99.90;;;;;;2702057;39;22314;31
2022/04/04 02:00:23;;;;;;;;;;;1.60;99.90;;;;;;2602692;54;19942;31
2022/04/04 02:03:00;;;;;;;;;;;1.60;99.90;;;;;;2701669;39;20456;31
2022/04/04 02:05:37;;;;;;;;;;;1.60;99.90;;;;;;2602867;54;19941;31
2022/04/04 02:08:11;;;;;;;;;;;1.60;99.90;;;;;;2603284;54;20745;31
2022/04/04 02:10:45;;;;;;;;;;;1.70;99.90;;;;;;2602966;54;21270;31
2022/04/04 02:13:19;;;;;;;;;;;1.70;99.90;;;;;;2603267;54;19942;31
2022/04/04 02:15:58;;;;;;;;;;;1.70;99.90;;;;;;2621689;46;20747;31
2022/04/04 02:18:35;;;;;;;;;;;1.80;99.90;;;;;;2603555;54;20543;31
2022/04/04 02:21:10;;;;;;;;;;;1.80;99.90;;;;;;2603243;54;20731;31
2022/04/04 02:23:45;;;;;;;;;;;1.80;99.90;;;;;;2603342;54;19934;31
2022/04/04 02:26:20;;;;;;;;;;;1.80;99.90;;;;;;2603402;54;20049;31
2022/04/04 02:28:56;;;;;;;;;;;1.90;99.90;;;;;;2602815;54;20754;31
2022/04/04 02:31:35;;;;;;;;;;;1.90;99.90;;;;;;2619452;46;19942;31
2022/04/04 02:34:13;;;;;;;;;;;1.90;99.90;;;;;;2603405;54;20757;31
2022/04/04 02:36:47;;;;;;;;;;;1.90;99.90;;;;;;2603097;54;20782;31
2022/04/04 02:39:25;;;;;;;;;;;1.90;99.90;;;;;;2602643;54;21090;31
2022/04/04 02:42:00;;;;;;;;;;;1.90;99.90;;;;;;2621972;46;19942;31
2022/04/04 02:44:35;;;;;;;;;;;1.90;99.90;;;;;;2603328;54;19942;31
2022/04/04 02:47:11;;;;;;;;;;;2.00;99.90;;;;;;2603392;54;19956;31
2022/04/04 02:49:48;;;;;;;;;;;2.00;99.90;;;;;;2621698;46;19941;31
2022/04/04 02:52:25;;;;;;;;;;;2.00;99.90;;;;;;2613905;46;19939;31
2022/04/04 02:56:28;;;;;;;;;;;2.00;99.90;;;;;;2602347;54;19942;31
2022/04/04 02:57:54;;;;;;;;;;;2.10;99.90;;;;;;2603246;54;20736;31
2022/04/04 03:00:29;;;;;;;;;;;2.10;99.90;;;;;;2603241;54;19965;31
2022/04/04 03:03:07;;;;;;;;;;;2.10;99.90;;;;;;2603074;54;19954;31
2022/04/04 03:05:45;;;;;;;;;;;2.10;99.90;;;;;;2603125;54;19997;31
2022/04/04 03:08:19;;;;;;;;;;;2.10;99.90;;;;;;2603101;54;20748;31
2022/04/04 03:10:53;;;;;;;;;;;2.10;99.90;;;;;;2621583;46;19958;31
2022/04/04 03:13:30;;;;;;;;;;;2.20;99.90;;;;;;2621233;46;19993;31
2022/04/04 03:16:05;;;;;;;;;;;2.20;99.90;;;;;;2602265;54;19961;31
2022/04/04 03:18:40;;;;;;;;;;;2.20;99.90;;;;;;2603248;54;20639;31
2022/04/04 03:21:18;;;;;;;;;;;2.20;99.90;;;;;;2603163;54;20653;31
2022/04/04 03:23:52;;;;;;;;;;;2.20;99.90;;;;;;2603139;54;19934;31
2022/04/04 03:26:29;;;;;;;;;;;2.30;99.90;;;;;;2603194;54;19994;31
2022/04/04 03:29:04;;;;;;;;;;;2.30;99.90;;;;;;2621448;46;20658;31
2022/04/04 03:31:39;;;;;;;;;;;2.30;99.90;;;;;;2621439;46;19934;31
2022/04/04 03:34:15;;;;;;;;;;;2.30;99.90;;;;;;2603288;54;19938;31
2022/04/04 03:36:54;;;;;;;;;;;2.30;99.90;;;;;;2614457;46;21549;31
2022/04/04 03:39:31;;;;;;;;;;;2.40;99.90;;;;;;2603157;54;20854;31
2022/04/04 03:42:07;;;;;;;;;;;2.40;99.90;;;;;;2602362;54;19981;31
2022/04/04 03:44:41;;;;;;;;;;;2.40;99.90;;;;;;2602956;54;19961;31
2022/04/04 03:47:17;;;;;;;;;;;2.40;99.90;;;;;;2619951;46;19980;31
2022/04/04 03:49:59;;;;;;;;;;;2.40;99.90;;;;;;2619727;46;20001;31
2022/04/04 03:52:36;;;;;;;;;;;2.40;99.90;;;;;;2605848;46;20750;31
2022/04/04 03:55:11;;;;;;;;;;;2.40;99.90;;;;;;2602841;54;19989;31
2022/04/04 03:57:48;;;;;;;;;;;2.40;99.90;;;;;;2603062;54;19942;31
2022/04/04 04:00:23;;;;;;;;;;;2.40;99.90;;;;;;2602006;54;19950;31
2022/04/04 04:02:58;;;;;;;;;;;2.50;99.90;;;;;;2603002;54;20780;31
2022/04/04 04:05:32;;;;;;;;;;;2.40;99.90;;;;;;2720056;39;22247;31
2022/04/04 04:08:11;;;;;;;;;;;2.40;99.90;;;;;;2701351;39;21423;31
2022/04/04 04:10:46;;;;;;;;;;;2.40;99.90;;;;;;2602719;54;19942;31
2022/04/04 04:13:21;;;;;;;;;;;2.40;99.90;;;;;;2621333;47;19942;31
2022/04/04 04:15:57;;;;;;;;;;;3.00;99.90;;;;;;2621329;47;19934;31
2022/04/04 04:18:33;;;;;;;;;;;2.40;99.90;;;;;;2783371;31;20562;31
2022/04/04 04:21:09;;;;;;;;;;;2.40;99.90;;;;;;2602959;54;19947;31
2022/04/04 04:23:53;;;;;;;;;;;2.40;99.90;;;;;;2602693;54;19943;31
2022/04/04 04:26:29;;;;;;;;;;;2.30;99.90;;;;;;2621508;47;21453;31
2022/04/04 04:29:04;;;;;;;;;;;2.30;99.90;;;;;;2621950;46;19957;31
2022/04/04 04:31:38;;;;;;;;;;;2.30;99.90;;;;;;2603553;54;20723;31
2022/04/04 04:34:15;;;;;;;;;;;2.20;99.90;;;;;;2622117;46;20010;31
2022/04/04 04:36:53;;;;;;;;;;;2.20;99.90;;;;;;2621391;46;19935;31
2022/04/04 04:39:30;;;;;;;;;;;2.10;99.90;;;;;;2622291;46;19981;31
2022/04/04 04:42:04;;;;;;;;;;;2.10;99.90;;;;;;2603734;54;19941;31
2022/04/04 04:44:38;;;;;;;;;;;2.10;99.90;;;;;;2603615;54;19994;31
2022/04/04 04:47:14;;;;;;;;;;;2.10;99.90;;;;;;2622400;46;20760;31
2022/04/04 04:49:48;;;;;;;;;;;2.10;99.90;;;;;;2622303;46;20733;31
2022/04/04 04:52:23;;;;;;;;;;;2.10;99.90;;;;;;2603630;54;20709;31
2022/04/04 04:55:00;;;;;;;;;;;2.10;99.90;;;;;;2621438;46;20752;31
2022/04/04 04:57:35;;;;;;;;;;;2.10;99.90;;;;;;2603744;54;20478;31
2022/04/04 05:00:11;;;;;;;;;;;2.10;99.90;;;;;;2603511;54;19976;31
2022/04/04 05:02:47;;;;;;;;;;;2.20;99.90;;;;;;2622256;46;20755;31
2022/04/04 05:05:22;;;;;;;;;;;2.20;99.90;;;;;;2603489;54;20851;31
2022/04/04 05:07:55;;;;;;;;;;;2.20;99.90;;;;;;2621968;46;19942;31
2022/04/04 05:10:32;;;;;;;;;;;2.20;99.90;;;;;;2603628;54;19935;31
2022/04/04 05:13:06;;;;;;;;;;;2.20;99.90;;;;;;2603605;54;19954;31
2022/04/04 05:15:42;;;;;;;;;;;2.30;99.90;;;;;;2603458;54;19961;31
2022/04/04 05:18:17;;;;;;;;;;;2.30;99.90;;;;;;2622127;46;20788;31
2022/04/04 05:20:51;;;;;;;;;;;2.30;99.90;;;;;;2603664;54;19942;31
2022/04/04 05:23:25;;;;;;;;;;;2.30;99.90;;;;;;2603409;54;19946;31
2022/04/04 05:26:04;;;;;;;;;;;3.20;99.90;;;;;;2603252;54;20024;31
2022/04/04 05:28:38;;;;;;;;;;;2.40;99.90;;;;;;2621940;46;20794;31
2022/04/04 05:31:13;;;;;;;;;;;2.50;99.90;;;;;;2620270;46;21023;31
2022/04/04 05:33:48;;;;;;;;;;;2.50;99.90;;;;;;2603675;54;20769;31
2022/04/04 05:36:23;;;;;;;;;;;2.50;99.90;;;;;;2602852;54;20631;31
2022/04/04 05:38:58;;;;;;;;;;;2.60;99.90;;;;;;2602478;54;19942;31
2022/04/04 05:41:38;;;;;;;;;;;2.70;99.90;;;;;;2602571;54;19985;31
2022/04/04 05:44:18;;;;;;;;;;;2.80;99.90;;;;;;2602757;54;20012;31
2022/04/04 05:46:55;;;;;;;;;;;2.90;99.90;;;;;;2621985;46;20753;31
2022/04/04 05:49:29;;;;;;;;;;;3.00;99.90;;;;;;2602746;54;19948;31
2022/04/04 05:52:05;;;;;;;;;;;3.30;99.90;;;;;;2603450;54;20753;31
2022/04/04 05:54:54;;;;;;;;;;;3.60;99.90;;;;;;2603551;54;20764;31
2022/04/04 05:57:30;;;;;;;;;;;4.10;99.90;;;;;;2621603;46;20009;31
2022/04/04 06:00:08;;;;;;;;;;;4.60;99.90;;;;;;2622014;46;20713;31
2022/04/04 06:02:43;;;;;;;;;;;5.10;99.90;;;;;;2603328;54;19941;31
2022/04/04 06:05:19;;;;;;;;;;;5.60;99.90;;;;;;2621584;46;20691;31
2022/04/04 06:07:55;;;;;;;;;;;6.10;99.90;;;;;;2602867;54;19934;31
2022/04/04 06:10:29;;;;;;;;;;;6.40;99.90;;;;;;2602622;54;20665;31
2022/04/04 06:13:06;;;;;;;;;;;6.80;99.90;;;;;;2602135;54;20784;31
2022/04/04 06:15:44;;;;;;;;;;;7.10;99.90;;;;;;2621415;46;19946;31
2022/04/04 06:18:16;;;;;;;;;;;8.10;99.90;;;;;;2603105;54;21820;31
2022/04/04 06:20:53;;;;;;;;;;;7.60;99.90;;;;;;2603193;54;20805;31
2022/04/04 06:23:33;;;;;;;;;;;7.80;99.90;;;;;;2603428;54;19935;31
2022/04/04 06:26:08;;;;;;;;;;;8.10;99.90;;;;;;2611276;46;19949;31
2022/04/04 06:28:47;;;;;;;;;;;8.20;99.90;;;;;;2619272;46;20820;31
2022/04/04 06:31:25;;;;;;;;;;;8.30;99.90;;;;;;2602295;54;19969;31
2022/04/04 06:34:00;;;;;;;;;;;8.60;99.90;;;;;;2602193;54;19943;31
2022/04/04 06:36:38;;;;;;;;;;;8.80;99.90;;;;;;2621615;46;20789;31
2022/04/04 06:39:15;;;;;;;;;;;8.90;99.90;;;;;;2603074;54;19935;31
2022/04/04 06:41:52;;;;;;;;;;;9.00;99.90;;;;;;2602970;54;19973;31
2022/04/04 06:44:27;;;;;;;;;;;9.40;99.90;;;;;;2603144;54;19935;31
2022/04/04 06:47:06;;;;;;;;;;;9.50;99.90;;;;;;2621621;46;20678;31
2022/04/04 06:49:42;;;;;;;;;;;9.70;99.90;;;;;;2603232;54;19935;31
2022/04/04 06:52:29;;;;;;;;;;;10.00;99.90;;;;;;2603029;54;20666;31
2022/04/04 06:55:07;;;;;;;;;;;10.10;99.90;;;;;;2621570;46;19941;31
2022/04/04 06:57:42;;;;;;;;;;;10.40;99.90;;;;;;2602698;54;19995;31
2022/04/04 07:00:22;;;;;;;;;;;10.70;99.30;;;;;;2602646;54;19934;31
2022/04/04 07:02:58;;;;;;;;;;;10.80;98.40;;;;;;2602836;54;19934;31
2022/04/04 07:05:36;;;;;;;;;;;10.80;99.70;;;;;;2621571;46;19941;31
2022/04/04 07:08:14;;;;;;;;;;;11.00;98.00;;;;;;2621479;46;20014;31
2022/04/04 07:10:52;;;;;;;;;;;11.20;97.70;;;;;;2621006;46;19934;31
2022/04/04 07:13:28;;;;;;;;;;;11.30;97.20;;;;;;2621238;46;19934;31
2022/04/04 07:16:03;;;;;;;;;;;11.50;96.70;;;;;;2602019;54;19948;31
2022/04/04 07:18:43;;;;;;;;;;;11.80;96.40;;;;;;2602846;54;20809;31
2022/04/04 07:21:22;;;;;;;;;;;11.90;95.80;;;;;;2621171;46;19935;31
2022/04/04 07:23:57;;;;;;;;;;;12.20;96.50;;;;;;2608978;46;19942;31
2022/04/04 07:29:23;;;;;;;;;;;12.30;93.90;;;;;;2621220;46;20744;31
2022/04/04 07:31:59;;;;;;;;;;;12.20;94.50;;;;;;2602997;54;20781;31
2022/04/04 07:34:36;;;;;;;;;;;12.30;94.40;;;;;;2602237;54;19950;31
2022/04/04 07:37:17;;;;;;;;;;;12.30;94.10;;;;;;2602001;54;19961;31
2022/04/04 07:39:52;;;;;;;;;;;12.30;93.30;;;;;;2602618;54;19945;31
2022/04/04 07:42:27;;;;;;;;;;;12.40;93.90;;;;;;2602843;54;20773;31
2022/04/04 07:45:02;;;;;;;;;;;12.60;93.90;;;;;;2621156;46;19993;31
2022/04/04 07:47:39;;;;;;;;;;;12.60;93.40;;;;;;2602712;54;20729;31
2022/04/04 07:50:15;;;;;;;;;;;12.80;93.60;;;;;;2602982;54;19935;31
2022/04/04 07:52:53;;;;;;;;;;;13.00;93.30;;;;;;2602608;54;19942;31
2022/04/04 07:55:28;;;;;;;;;;;13.20;93.30;;;;;;2621316;46;19934;31
2022/04/04 07:58:05;;;;;;;;;;;13.20;92.60;;;;;;2602803;54;19934;31
2022/04/04 08:00:42;;;;;;;;;;;13.30;92.20;;;;;;2602848;54;20769;31
2022/04/04 08:03:20;;;;;;;;;;;13.10;91.90;;;;;;2601737;54;19935;31
2022/04/04 08:05:55;;;;;;;;;;;13.30;92.00;;;;;;2619585;46;20024;31
2022/04/04 08:08:35;;;;;;;;;;;13.30;92.20;;;;;;2620045;46;19934;31
2022/04/04 08:11:11;;;;;;;;;;;13.20;91.60;;;;;;2602029;54;19950;31
2022/04/04 08:13:47;;;;;;;;;;;13.20;91.60;;;;;;2602875;54;19957;31
2022/04/04 08:16:22;;;;;;;;;;;13.40;91.70;;;;;;2602819;54;19941;31
2022/04/04 08:18:57;;;;;;;;;;;13.50;91.40;;;;;;2602744;54;19934;31
2022/04/04 08:21:36;;;;;;;;;;;13.50;91.50;;;;;;2602746;54;20745;31
2022/04/04 08:24:17;;;;;;;;;;;13.60;91.40;;;;;;2602769;54;20746;31
2022/04/04 08:26:52;;;;;;;;;;;13.90;91.40;;;;;;2602931;54;19935;31
2022/04/04 08:29:29;;;;;;;;;;;14.20;90.20;;;;;;2621384;47;20773;31
2022/04/04 08:32:05;;;;;;;;;;;14.30;90.20;;;;;;2603047;54;19946;31
2022/04/04 08:34:41;;;;;;;;;;;14.50;89.20;;;;;;2602724;54;19942;31
2022/04/04 08:37:17;;;;;;;;;;;14.50;88.20;;;;;;2602703;54;20818;31
2022/04/04 08:39:56;;;;;;;;;;;14.60;90.10;;;;;;2602247;54;19934;31
2022/04/04 08:42:32;;;;;;;;;;;14.60;85.90;;;;;;2601635;54;19947;31
2022/04/04 08:45:09;;;;;;;;;;;14.60;87.20;;;;;;2602175;54;20651;31
2022/04/04 08:47:48;;;;;;;;;;;14.50;84.90;;;;;;2602110;54;19993;31
2022/04/04 08:50:24;;;;;;;;;;;14.40;84.40;;;;;;2602930;54;19962;31
2022/04/04 08:53:01;;;;;;;;;;;14.30;84.40;;;;;;2602246;54;19942;31
2022/04/04 08:55:39;;;;;;;;;;;14.20;85.40;;;;;;2621293;47;20752;31
2022/04/04 08:58:16;;;;;;;;;;;14.30;84.00;;;;;;2621204;47;20808;31
2022/04/04 09:00:55;;;;;;;;;;;14.20;83.30;;;;;;2602451;54;20797;31
2022/04/04 09:03:31;;;;;;;;;;;14.20;81.90;;;;;;2621174;47;20744;31
2022/04/04 09:06:07;;;;;;;;;;;14.30;82.70;;;;;;2602773;54;20739;31
2022/04/04 09:08:45;;;;;;;;;;;14.00;82.30;;;;;;2602509;54;19935;31
2022/04/04 09:11:21;;;;;;;;;;;13.90;82.20;;;;;;2602405;54;20674;31
2022/04/04 09:14:06;;;;;;;;;;;13.60;80.90;;;;;;2621405;47;20775;31
2022/04/04 09:16:56;;;;;;;;;;;13.60;82.80;;;;;;2603138;54;19946;31
2022/04/04 09:19:35;;;;;;;;;;;13.70;82.90;;;;;;2603214;54;19997;31
2022/04/04 09:22:10;;;;;;;;;;;13.40;81.60;;;;;;2603536;54;19934;31
2022/04/04 09:24:49;;;;;;;;;;;13.20;81.80;;;;;;2621538;46;19947;31
2022/04/04 09:27:28;;;;;;;;;;;12.90;83.20;;;;;;2621898;46;19935;31
2022/04/04 09:30:05;;;;;;;;;;;12.80;83.70;;;;;;2603342;54;19934;31
2022/04/04 09:32:40;;;;;;;;;;;12.70;84.00;;;;;;2602646;54;20773;31
2022/04/04 09:35:26;;;;;;;;;;;12.50;83.00;;;;;;2621853;46;19934;31
2022/04/04 09:38:04;;;;;;;;;;;12.30;83.30;;;;;;2603191;54;20739;31
2022/04/04 09:40:39;;;;;;;;;;;12.30;84.20;;;;;;2603132;54;19941;31
2022/04/04 09:43:17;;;;;;;;;;;12.00;83.10;;;;;;2603353;54;20739;31
2022/04/04 09:45:54;;;;;;;;;;;11.90;84.70;;;;;;2621782;46;20048;31
2022/04/04 09:48:34;;;;;;;;;;;11.70;83.90;;;;;;2602878;54;19962;31
2022/04/04 09:51:14;;;;;;;;;;;11.60;83.50;;;;;;2603134;54;20017;31
2022/04/04 09:53:49;;;;;;;;;;;11.40;83.70;;;;;;2603020;54;20025;31
2022/04/04 09:56:25;;;;;;;;;;;11.40;85.00;;;;;;2620419;46;20771;31
2022/04/04 09:59:02;;;;;;;;;;;11.50;84.40;;;;;;2602344;54;19941;31
2022/04/04 10:01:38;;;;;;;;;;;11.70;84.50;;;;;;2602826;54;19934;31
2022/04/04 10:04:15;;;;;;;;;;;11.70;85.60;;;;;;2602905;54;19941;31
2022/04/04 10:06:53;;;;;;;;;;;11.60;85.20;;;;;;2701546;39;21564;31
2022/04/04 10:09:28;;;;;;;;;;;11.50;85.10;;;;;;2621621;46;19957;31
2022/04/04 10:12:08;;;;;;;;;;;11.50;85.50;;;;;;2621326;46;19963;31
2022/04/04 10:14:43;;;;;;;;;;;11.70;84.60;;;;;;2603135;54;20822;31
2022/04/04 10:17:18;;;;;;;;;;;11.50;83.30;;;;;;2720199;39;21509;31
2022/04/04 10:19:53;;;;;;;;;;;11.40;84.70;;;;;;2621378;46;20757;31
2022/04/04 10:22:32;;;;;;;;;;;11.50;85.80;;;;;;2602382;54;20773;31
2022/04/04 10:25:09;;;;;;;;;;;11.60;84.90;;;;;;2602994;54;20763;31
2022/04/04 10:27:44;;;;;;;;;;;11.40;84.30;;;;;;2602134;54;19950;31
2022/04/04 10:30:20;;;;;;;;;;;11.30;85.00;;;;;;2620844;46;19977;31
2022/04/04 10:32:57;;;;;;;;;;;11.20;85.80;;;;;;2621307;46;19934;31
2022/04/04 10:35:35;;;;;;;;;;;11.20;85.30;;;;;;2602897;54;20544;31
2022/04/04 10:38:16;;;;;;;;;;;11.10;84.80;;;;;;2621190;46;21086;31
2022/04/04 10:40:50;;;;;;;;;;;11.00;85.20;;;;;;2621543;46;19939;31
2022/04/04 10:43:25;;;;;;;;;;;11.00;85.30;;;;;;2621345;46;19934;31
2022/04/04 10:46:01;;;;;;;;;;;11.10;86.60;;;;;;2602119;54;20812;31
2022/04/04 10:48:36;;;;;;;;;;;10.90;84.10;;;;;;2701582;39;21396;31
2022/04/04 10:51:17;;;;;;;;;;;11.00;85.70;;;;;;2621436;46;19935;31
2022/04/04 10:53:55;;;;;;;;;;;11.20;86.40;;;;;;2701723;39;21569;31
2022/04/04 10:56:31;;;;;;;;;;;11.40;85.10;;;;;;2602881;54;20771;31
2022/04/04 10:59:21;;;;;;;;;;;11.20;83.20;;;;;;2791461;31;21582;31
2022/04/04 11:01:56;;;;;;;;;;;11.10;84.30;;;;;;2602583;54;19990;31
2022/04/04 11:04:31;;;;;;;;;;;11.20;85.30;;;;;;2602116;54;19961;31
2022/04/04 11:10:06;;;;;;;;;;;11.20;85.00;;;;;;2621064;46;20054;31
2022/04/04 11:12:55;;;;;;;;;;;11.50;85.90;;;;;;2602560;54;19942;31
2022/04/04 11:15:44;;;;;;;;;;;11.40;82.60;;;;;;2602645;54;19941;31
2022/04/04 11:18:19;;;;;;;;;;;11.60;84.60;;;;;;2602595;54;20775;31
2022/04/04 11:20:59;;;;;;;;;;;11.50;83.10;;;;;;2621210;46;19939;31
2022/04/04 11:23:35;;;;;;;;;;;11.60;83.50;;;;;;2621016;46;20671;31
2022/04/04 11:26:13;;;;;;;;;;;11.60;82.50;;;;;;2602760;54;20683;31
2022/04/04 11:28:52;;;;;;;;;;;11.60;83.30;;;;;;2602719;54;20738;31
2022/04/04 11:31:28;;;;;;;;;;;11.60;83.80;;;;;;2621457;46;19986;31
2022/04/04 11:34:06;;;;;;;;;;;11.50;83.20;;;;;;2617178;46;20028;31
2022/04/04 11:36:44;;;;;;;;;;;11.50;84.00;;;;;;2601856;54;20707;31
2022/04/04 11:39:24;;;;;;;;;;;11.50;82.90;;;;;;2602101;54;20732;31
2022/04/04 11:42:14;;;;;;;;;;;11.50;82.40;;;;;;2621075;46;20742;31
2022/04/04 11:44:51;;;;;;;;;;;11.40;83.30;;;;;;2602915;54;19941;31
2022/04/04 11:47:26;;;;;;;;;;;11.40;83.30;;;;;;2602570;54;19946;31
2022/04/04 11:50:03;;;;;;;;;;;11.30;80.30;;;;;;2602709;54;19934;31
2022/04/04 11:52:50;;;;;;;;;;;11.20;80.30;;;;;;2701482;39;20371;31
2022/04/04 11:55:31;;;;;;;;;;;11.10;88.80;;;;;;2621276;46;20793;31
2022/04/04 11:58:13;;;;;;;;;;;11.10;83.00;;;;;;2602496;54;20737;31
2022/04/04 12:00:54;;;;;;;;;;;11.10;81.60;;;;;;2621217;46;20011;31
2022/04/04 12:03:29;;;;;;;;;;;10.90;80.90;;;;;;2602424;54;20777;31
2022/04/04 12:06:07;;;;;;;;;;;10.80;81.10;;;;;;2602496;54;20886;31
2022/04/04 12:08:45;;;;;;;;;;;10.70;81.60;;;;;;2602323;54;19941;31
2022/04/04 12:11:29;;;;;;;;;;;10.60;81.30;;;;;;2602595;54;20826;31
2022/04/04 12:14:09;;;;;;;;;;;10.60;82.50;;;;;;2602426;54;20648;31
2022/04/04 12:16:53;;;;;;;;;;;10.70;83.10;;;;;;2602573;54;19941;31
2022/04/04 12:19:28;;;;;;;;;;;10.80;80.80;;;;;;2602360;54;19934;31
2022/04/04 12:24:55;;;;;;;;;;;10.70;81.30;;;;;;2621051;47;20745;31
2022/04/04 12:24:59;;;;;;;;;;;10.80;81.70;;;;;;2602442;54;19941;31
2022/04/04 12:27:36;;;;;;;;;;;10.90;81.70;;;;;;2621022;47;20857;31
2022/04/04 12:30:17;;;;;;;;;;;11.00;81.00;;;;;;2602562;54;19957;31
2022/04/04 12:32:53;;;;;;;;;;;11.00;82.00;;;;;;2620900;47;19960;31
2022/04/04 12:35:29;;;;;;;;;;;10.90;79.10;;;;;;2620973;47;19943;31
2022/04/04 12:38:08;;;;;;;;;;;10.90;80.70;;;;;;2602310;54;19942;31
2022/04/04 12:40:45;;;;;;;;;;;11.00;81.20;;;;;;2620989;47;19981;31
2022/04/04 12:43:20;;;;;;;;;;;11.00;78.90;;;;;;2620879;47;20796;31
2022/04/04 12:45:59;;;;;;;;;;;10.90;79.20;;;;;;2620613;47;20005;31
2022/04/04 12:48:37;;;;;;;;;;;10.90;79.30;;;;;;2602747;54;19960;31
2022/04/04 12:51:13;;;;;;;;;;;10.70;78.60;;;;;;2603476;54;20027;31
2022/04/04 12:53:49;;;;;;;;;;;10.50;78.50;;;;;;2603071;54;19990;31
2022/04/04 12:56:26;;;;;;;;;;;10.30;79.20;;;;;;2621930;46;20748;31
2022/04/04 12:59:07;;;;;;;;;;;10.20;79.90;;;;;;2603174;54;19935;31
2022/04/04 13:01:45;;;;;;;;;;;10.10;79.70;;;;;;2621793;46;19998;31
2022/04/04 13:04:24;;;;;;;;;;;10.10;80.80;;;;;;2621974;46;20758;31
2022/04/04 13:07:08;;;;;;;;;;;10.00;81.00;;;;;;2603355;54;19957;31
2022/04/04 13:09:50;;;;;;;;;;;10.00;80.80;;;;;;2602924;54;20076;31
2022/04/04 13:12:26;;;;;;;;;;;10.10;81.10;;;;;;2603224;54;20734;31
2022/04/04 13:15:04;;;;;;;;;;;10.10;79.90;;;;;;2621679;46;19957;31
2022/04/04 13:17:44;;;;;;;;;;;10.00;78.70;;;;;;2603067;54;19941;31
2022/04/04 13:20:22;;;;;;;;;;;10.00;78.70;;;;;;2621544;46;20669;31
2022/04/04 13:22:56;;;;;;;;;;;10.10;80.30;;;;;;2621859;46;20006;31
2022/04/04 13:25:33;;;;;;;;;;;10.00;78.60;;;;;;2602475;54;19935;31
2022/04/04 13:28:10;;;;;;;;;;;10.00;79.50;;;;;;2621438;46;19942;31
2022/04/04 13:30:45;;;;;;;;;;;10.00;80.10;;;;;;2603117;54;19941;31
2022/04/04 13:33:25;;;;;;;;;;;10.10;77.90;;;;;;2603071;54;19941;31
2022/04/04 13:36:04;;;;;;;;;;;10.20;79.10;;;;;;2603258;54;20779;31
2022/04/04 13:38:39;;;;;;;;;;;10.10;77.30;;;;;;2602421;54;20001;31
2022/04/04 13:41:15;;;;;;;;;;;10.10;77.90;;;;;;2602338;54;20779;31
2022/04/04 13:43:54;;;;;;;;;;;10.20;78.60;;;;;;2603015;54;20683;31
2022/04/04 13:46:31;;;;;;;;;;;10.30;79.10;;;;;;2621782;46;20750;31
2022/04/04 13:49:10;;;;;;;;;;;10.40;76.90;;;;;;2603036;54;19935;31
2022/04/04 13:51:51;;;;;;;;;;;10.40;75.60;;;;;;2603085;54;20041;31
2022/04/04 13:54:32;;;;;;;;;;;10.40;74.80;;;;;;2621695;46;20738;31
2022/04/04 13:57:10;;;;;;;;;;;10.30;75.40;;;;;;2603314;54;19960;31
2022/04/04 13:59:45;;;;;;;;;;;10.40;75.20;;;;;;2602635;54;19935;31
2022/04/04 14:02:27;;;;;;;;;;;10.50;75.90;;;;;;2602280;54;19941;31
2022/04/04 14:05:03;;;;;;;;;;;10.60;76.20;;;;;;2601936;54;19946;31
2022/04/04 14:07:45;;;;;;;;;;;10.50;74.90;;;;;;2614619;46;20017;31
2022/04/04 14:10:25;;;;;;;;;;;10.50;74.40;;;;;;2603092;54;20853;31
2022/04/04 14:13:00;;;;;;;;;;;10.40;74.20;;;;;;2621528;46;19939;31
2022/04/04 14:15:37;;;;;;;;;;;10.30;74.20;;;;;;2621574;46;20787;31
2022/04/04 14:18:14;;;;;;;;;;;10.20;75.40;;;;;;2602867;54;19958;31
2022/04/04 14:20:52;;;;;;;;;;;10.10;74.50;;;;;;2603150;54;20740;31
2022/04/04 14:23:28;;;;;;;;;;;10.10;76.20;;;;;;2602873;54;19935;31
2022/04/04 14:26:06;;;;;;;;;;;10.10;74.70;;;;;;2603003;54;20732;31
2022/04/04 14:28:44;;;;;;;;;;;10.10;74.70;;;;;;2602971;54;20802;31
2022/04/04 14:31:23;;;;;;;;;;;10.00;73.80;;;;;;2602662;54;19943;31
2022/04/04 14:34:01;;;;;;;;;;;10.00;74.30;;;;;;2602954;54;20874;31
2022/04/04 14:39:23;;;;;;;;;;;10.00;75.30;;;;;;2602934;54;19941;31
2022/04/04 14:42:02;;;;;;;;;;;10.00;76.00;;;;;;2621284;46;20820;31
2022/04/04 14:44:37;;;;;;;;;;;10.00;75.60;;;;;;2602622;54;19934;31
2022/04/04 14:47:10;;;;;;;;;;;9.90;74.90;;;;;;2603001;54;21813;31
2022/04/04 14:50:07;;;;;;;;;;;9.90;74.50;;;;;;2621171;46;20069;31
2022/04/04 14:52:46;;;;;;;;;;;9.80;75.50;;;;;;2602931;54;19935;31
2022/04/04 14:55:22;;;;;;;;;;;9.80;75.10;;;;;;2602758;54;19934;31
2022/04/04 14:58:00;;;;;;;;;;;9.70;74.90;;;;;;2621440;46;20818;31
2022/04/04 15:00:37;;;;;;;;;;;9.70;75.40;;;;;;2603057;54;20018;31
2022/04/04 15:03:17;;;;;;;;;;;9.70;76.00;;;;;;2602957;54;19994;31
2022/04/04 15:05:52;;;;;;;;;;;9.70;76.30;;;;;;2621438;46;19954;31
2022/04/04 15:08:37;;;;;;;;;;;9.60;74.70;;;;;;2602114;54;19949;31
2022/04/04 15:11:14;;;;;;;;;;;9.60;75.80;;;;;;2621353;46;19938;31
2022/04/04 15:13:51;;;;;;;;;;;9.60;75.80;;;;;;2602655;54;19961;31
2022/04/04 15:16:28;;;;;;;;;;;9.50;75.60;;;;;;2602919;54;20662;31
2022/04/04 15:19:07;;;;;;;;;;;9.60;79.00;;;;;;2621374;46;19935;31
2022/04/04 15:21:44;;;;;;;;;;;9.60;75.10;;;;;;2602551;54;19946;31
2022/04/04 15:24:23;;;;;;;;;;;9.80;77.90;;;;;;2602742;54;19942;31
2022/04/04 15:26:58;;;;;;;;;;;9.80;75.30;;;;;;2602065;54;19954;31
2022/04/04 15:29:35;;;;;;;;;;;9.70;75.30;;;;;;2602920;54;19973;31
2022/04/04 15:32:10;;;;;;;;;;;9.70;75.40;;;;;;2602516;54;19961;31
2022/04/04 15:34:50;;;;;;;;;;;9.60;75.20;;;;;;2621164;46;20723;31
2022/04/04 15:37:31;;;;;;;;;;;9.50;75.70;;;;;;2621529;46;20803;31
2022/04/04 15:40:10;;;;;;;;;;;9.50;75.40;;;;;;2621261;46;19934;31
2022/04/04 15:42:47;;;;;;;;;;;9.50;76.00;;;;;;2602574;54;19934;31